Aviation Digital Data Service (ADDS)

Output produced by METARs form (1000 UTC 26 May 2019)
found at http://www.aviationweather.gov/metar/data/
 
KLAS 260927Z 2609/2712 18007KT P6SM FEW250 
     FM261500 19014G22KT P6SM FEW080 BKN180 
     FM262000 21018G28KT P6SM VCSH SCT080 BKN120 
     PROB30 2621/2701 -SHRA BKN060 
     FM270300 24016G25KT P6SM SCT080 BKN150 
     FM270900 22010KT P6SM FEW080 FEW180